sensor_id;sensor_type;location;lat;lon;timestamp;pressure;altitude;pressure_sealevel;temperature;humidity
53651;BME280;39552;45.776;15.892;2023-02-14T00:00:21;102408.84;;;2.33;100.00
53651;BME280;39552;45.776;15.892;2023-02-14T00:02:49;102417.66;;;2.23;100.00
53651;BME280;39552;45.776;15.892;2023-02-14T00:05:16;102416.75;;;2.21;100.00
53651;BME280;39552;45.776;15.892;2023-02-14T00:07:43;102423.03;;;2.28;100.00
53651;BME280;39552;45.776;15.892;2023-02-14T00:10:10;102415.94;;;2.31;100.00
53651;BME280;39552;45.776;15.892;2023-02-14T00:12:37;102432.03;;;2.36;100.00
53651;BME280;39552;45.776;15.892;2023-02-14T00:15:04;102422.09;;;2.21;100.00
53651;BME280;39552;45.776;15.892;2023-02-14T00:17:30;102422.94;;;2.17;100.00
53651;BME280;39552;45.776;15.892;2023-02-14T00:19:58;102419.41;;;2.20;100.00
53651;BME280;39552;45.776;15.892;2023-02-14T00:22:25;102414.13;;;2.27;100.00
53651;BME280;39552;45.776;15.892;2023-02-14T00:24:52;102411.50;;;2.33;100.00
53651;BME280;39552;45.776;15.892;2023-02-14T00:27:19;102418.75;;;2.47;100.00
53651;BME280;39552;45.776;15.892;2023-02-14T00:29:45;102419.53;;;2.33;100.00
53651;BME280;39552;45.776;15.892;2023-02-14T00:32:12;102441.03;;;2.46;100.00
53651;BME280;39552;45.776;15.892;2023-02-14T00:34:39;102434.81;;;2.48;100.00
53651;BME280;39552;45.776;15.892;2023-02-14T00:37:07;102422.25;;;2.38;100.00
53651;BME280;39552;45.776;15.892;2023-02-14T00:39:34;102421.28;;;2.28;100.00
53651;BME280;39552;45.776;15.892;2023-02-14T00:42:01;102427.69;;;2.47;100.00
53651;BME280;39552;45.776;15.892;2023-02-14T00:44:28;102437.44;;;2.44;100.00
53651;BME280;39552;45.776;15.892;2023-02-14T00:46:54;102413.19;;;2.21;100.00
53651;BME280;39552;45.776;15.892;2023-02-14T00:49:21;102419.59;;;2.43;100.00
53651;BME280;39552;45.776;15.892;2023-02-14T00:51:48;102447.34;;;2.59;100.00
53651;BME280;39552;45.776;15.892;2023-02-14T00:54:16;102450.00;;;2.54;100.00
53651;BME280;39552;45.776;15.892;2023-02-14T00:56:43;102457.06;;;2.49;100.00
53651;BME280;39552;45.776;15.892;2023-02-14T00:59:09;102445.63;;;2.64;100.00
53651;BME280;39552;45.776;15.892;2023-02-14T01:01:37;102440.06;;;2.41;100.00
53651;BME280;39552;45.776;15.892;2023-02-14T01:04:04;102455.41;;;2.62;100.00
53651;BME280;39552;45.776;15.892;2023-02-14T01:06:30;102441.16;;;2.61;100.00
53651;BME280;39552;45.776;15.892;2023-02-14T01:08:57;102456.22;;;2.51;100.00
53651;BME280;39552;45.776;15.892;2023-02-14T01:11:25;102458.03;;;2.59;100.00
53651;BME280;39552;45.776;15.892;2023-02-14T01:13:56;102454.38;;;2.46;100.00
53651;BME280;39552;45.776;15.892;2023-02-14T01:16:25;102442.66;;;2.33;100.00
53651;BME280;39552;45.776;15.892;2023-02-14T01:18:52;102444.34;;;2.23;100.00
53651;BME280;39552;45.776;15.892;2023-02-14T01:21:21;102444.22;;;2.12;100.00
53651;BME280;39552;45.776;15.892;2023-02-14T01:23:50;102428.88;;;1.90;100.00
53651;BME280;39552;45.776;15.892;2023-02-14T01:26:18;102455.63;;;1.96;100.00
53651;BME280;39552;45.776;15.892;2023-02-14T01:28:46;102431.53;;;1.88;100.00
53651;BME280;39552;45.776;15.892;2023-02-14T01:31:14;102436.88;;;1.90;100.00
53651;BME280;39552;45.776;15.892;2023-02-14T01:33:43;102435.91;;;1.82;100.00
53651;BME280;39552;45.776;15.892;2023-02-14T01:36:15;102446.75;;;1.95;100.00
53651;BME280;39552;45.776;15.892;2023-02-14T01:38:42;102446.72;;;1.94;100.00
53651;BME280;39552;45.776;15.892;2023-02-14T01:41:08;102421.78;;;1.92;100.00
53651;BME280;39552;45.776;15.892;2023-02-14T01:43:59;102419.88;;;1.80;100.00
53651;BME280;39552;45.776;15.892;2023-02-14T01:46:28;102425.19;;;1.79;100.00
53651;BME280;39552;45.776;15.892;2023-02-14T01:49:01;102429.72;;;1.84;100.00
53651;BME280;39552;45.776;15.892;2023-02-14T01:51:29;102436.13;;;2.02;100.00
53651;BME280;39552;45.776;15.892;2023-02-14T01:53:58;102445.91;;;2.00;100.00
53651;BME280;39552;45.776;15.892;2023-02-14T01:56:28;102430.59;;;1.85;100.00
53651;BME280;39552;45.776;15.892;2023-02-14T01:59:00;102421.81;;;1.96;100.00
53651;BME280;39552;45.776;15.892;2023-02-14T02:01:28;102407.34;;;1.74;100.00
53651;BME280;39552;45.776;15.892;2023-02-14T02:03:59;102433.06;;;1.68;100.00
53651;BME280;39552;45.776;15.892;2023-02-14T02:06:30;102428.59;;;1.65;100.00
53651;BME280;39552;45.776;15.892;2023-02-14T02:09:06;102411.09;;;1.92;100.00
53651;BME280;39552;45.776;15.892;2023-02-14T02:11:34;102429.81;;;1.93;100.00
53651;BME280;39552;45.776;15.892;2023-02-14T02:14:02;102417.28;;;1.86;100.00
53651;BME280;39552;45.776;15.892;2023-02-14T02:16:40;102442.28;;;1.96;100.00
53651;BME280;39552;45.776;15.892;2023-02-14T02:19:42;102433.19;;;1.79;100.00
53651;BME280;39552;45.776;15.892;2023-02-14T02:23:00;102423.34;;;1.73;100.00
53651;BME280;39552;45.776;15.892;2023-02-14T02:25:50;102444.78;;;1.81;100.00
53651;BME280;39552;45.776;15.892;2023-02-14T02:28:37;102416.38;;;1.84;100.00
53651;BME280;39552;45.776;15.892;2023-02-14T02:31:20;102452.66;;;1.71;100.00
53651;BME280;39552;45.776;15.892;2023-02-14T02:34:17;102434.88;;;1.70;100.00
53651;BME280;39552;45.776;15.892;2023-02-14T02:37:16;102446.53;;;1.79;100.00
53651;BME280;39552;45.776;15.892;2023-02-14T02:40:02;102436.63;;;1.70;100.00
53651;BME280;39552;45.776;15.892;2023-02-14T02:42:36;102424.16;;;1.67;100.00
53651;BME280;39552;45.776;15.892;2023-02-14T02:45:12;102446.44;;;1.71;100.00
53651;BME280;39552;45.776;15.892;2023-02-14T02:47:48;102417.97;;;1.68;100.00
53651;BME280;39552;45.776;15.892;2023-02-14T02:50:21;102417.69;;;1.45;100.00
53651;BME280;39552;45.776;15.892;2023-02-14T02:52:54;102429.19;;;1.41;100.00
53651;BME280;39552;45.776;15.892;2023-02-14T02:55:29;102417.06;;;1.69;100.00
53651;BME280;39552;45.776;15.892;2023-02-14T02:57:57;102400.63;;;1.34;100.00
53651;BME280;39552;45.776;15.892;2023-02-14T03:00:24;102405.38;;;1.58;100.00
53651;BME280;39552;45.776;15.892;2023-02-14T03:02:54;102415.13;;;1.56;100.00
53651;BME280;39552;45.776;15.892;2023-02-14T03:05:23;102414.91;;;1.39;100.00
53651;BME280;39552;45.776;15.892;2023-02-14T03:07:52;102425.94;;;1.67;100.00
53651;BME280;39552;45.776;15.892;2023-02-14T03:10:20;102417.97;;;1.68;100.00
53651;BME280;39552;45.776;15.892;2023-02-14T03:16:28;102426.31;;;1.27;100.00
53651;BME280;39552;45.776;15.892;2023-02-14T03:19:15;102403.31;;;1.37;100.00
53651;BME280;39552;45.776;15.892;2023-02-14T03:21:46;102403.50;;;1.49;100.00
53651;BME280;39552;45.776;15.892;2023-02-14T03:24:24;102417.50;;;1.31;100.00
53651;BME280;39552;45.776;15.892;2023-02-14T03:26:58;102408.75;;;1.42;100.00
53651;BME280;39552;45.776;15.892;2023-02-14T03:29:33;102410.44;;;1.36;100.00
53651;BME280;39552;45.776;15.892;2023-02-14T03:32:09;102402.38;;;1.30;100.00
53651;BME280;39552;45.776;15.892;2023-02-14T03:34:44;102416.66;;;1.37;100.00
53651;BME280;39552;45.776;15.892;2023-02-14T03:37:15;102414.28;;;1.59;100.00
53651;BME280;39552;45.776;15.892;2023-02-14T03:39:53;102419.75;;;1.69;100.00
53651;BME280;39552;45.776;15.892;2023-02-14T03:42:24;102428.59;;;1.65;100.00
53651;BME280;39552;45.776;15.892;2023-02-14T03:44:53;102425.16;;;1.74;100.00
53651;BME280;39552;45.776;15.892;2023-02-14T03:47:23;102417.03;;;1.68;100.00
53651;BME280;39552;45.776;15.892;2023-02-14T03:49:52;102423.94;;;1.50;100.00
53651;BME280;39552;45.776;15.892;2023-02-14T03:52:21;102432.22;;;1.72;100.00
53651;BME280;39552;45.776;15.892;2023-02-14T03:54:51;102426.91;;;1.73;100.00
53651;BME280;39552;45.776;15.892;2023-02-14T03:57:24;102412.41;;;1.50;100.00
53651;BME280;39552;45.776;15.892;2023-02-14T03:59:52;102427.81;;;1.75;100.00
53651;BME280;39552;45.776;15.892;2023-02-14T04:02:23;102422.28;;;1.57;100.00
53651;BME280;39552;45.776;15.892;2023-02-14T04:04:51;102423.69;;;1.30;100.00
53651;BME280;39552;45.776;15.892;2023-02-14T04:07:20;102413.19;;;1.43;100.00
53651;BME280;39552;45.776;15.892;2023-02-14T04:09:49;102428.16;;;1.31;100.00
53651;BME280;39552;45.776;15.892;2023-02-14T04:12:17;102417.44;;;1.27;100.00
53651;BME280;39552;45.776;15.892;2023-02-14T04:14:58;102409.59;;;1.41;100.00
53651;BME280;39552;45.776;15.892;2023-02-14T04:17:24;102408.44;;;1.18;100.00
53651;BME280;39552;45.776;15.892;2023-02-14T04:19:51;102431.03;;;1.48;100.00
53651;BME280;39552;45.776;15.892;2023-02-14T04:22:18;102415.22;;;1.61;100.00
53651;BME280;39552;45.776;15.892;2023-02-14T04:24:45;102420.06;;;1.25;100.00
53651;BME280;39552;45.776;15.892;2023-02-14T04:27:13;102420.97;;;1.24;100.00
53651;BME280;39552;45.776;15.892;2023-02-14T04:29:41;102403.28;;;1.32;100.00
53651;BME280;39552;45.776;15.892;2023-02-14T04:32:10;102412.41;;;1.50;100.00
53651;BME280;39552;45.776;15.892;2023-02-14T04:34:37;102415.53;;;1.20;100.00
53651;BME280;39552;45.776;15.892;2023-02-14T04:37:05;102414.81;;;1.30;100.00
53651;BME280;39552;45.776;15.892;2023-02-14T04:39:32;102415.81;;;1.40;100.00
53651;BME280;39552;45.776;15.892;2023-02-14T04:41:59;102405.66;;;1.11;100.00
53651;BME280;39552;45.776;15.892;2023-02-14T04:44:28;102403.94;;;1.14;100.00
53651;BME280;39552;45.776;15.892;2023-02-14T04:46:54;102408.44;;;1.22;100.00
53651;BME280;39552;45.776;15.892;2023-02-14T04:49:21;102409.38;;;1.22;100.00
53651;BME280;39552;45.776;15.892;2023-02-14T04:51:48;102389.09;;;1.36;100.00
53651;BME280;39552;45.776;15.892;2023-02-14T04:54:15;102398.75;;;1.27;100.00
53651;BME280;39552;45.776;15.892;2023-02-14T04:56:42;102379.81;;;1.05;100.00
53651;BME280;39552;45.776;15.892;2023-02-14T04:59:08;102373.72;;;1.15;100.00
53651;BME280;39552;45.776;15.892;2023-02-14T05:01:37;102387.63;;;0.94;100.00
53651;BME280;39552;45.776;15.892;2023-02-14T05:04:04;102372.63;;;1.00;100.00
53651;BME280;39552;45.776;15.892;2023-02-14T05:06:31;102371.81;;;1.05;100.00
53651;BME280;39552;45.776;15.892;2023-02-14T05:08:57;102385.63;;;0.78;100.00
53651;BME280;39552;45.776;15.892;2023-02-14T05:11:25;102391.44;;;1.12;100.00
53651;BME280;39552;45.776;15.892;2023-02-14T05:13:52;102370.59;;;0.82;100.00
53651;BME280;39552;45.776;15.892;2023-02-14T05:16:19;102370.44;;;0.71;100.00
53651;BME280;39552;45.776;15.892;2023-02-14T05:18:47;102372.94;;;0.62;100.00
53651;BME280;39552;45.776;15.892;2023-02-14T05:21:13;102382.69;;;0.59;100.00
53651;BME280;39552;45.776;15.892;2023-02-14T05:23:40;102372.25;;;0.75;100.00
53651;BME280;39552;45.776;15.892;2023-02-14T05:26:07;102377.53;;;0.70;100.00
53651;BME280;39552;45.776;15.892;2023-02-14T05:28:34;102391.03;;;0.83;100.00
53651;BME280;39552;45.776;15.892;2023-02-14T05:31:01;102392.06;;;0.92;100.00
53651;BME280;39552;45.776;15.892;2023-02-14T05:33:29;102372.34;;;0.81;100.00
53651;BME280;39552;45.776;15.892;2023-02-14T05:35:58;102374.00;;;0.73;100.00
53651;BME280;39552;45.776;15.892;2023-02-14T05:38:25;102380.13;;;0.66;100.00
53651;BME280;39552;45.776;15.892;2023-02-14T05:40:52;102386.38;;;0.68;100.00
53651;BME280;39552;45.776;15.892;2023-02-14T05:43:19;102397.25;;;0.82;100.00
53651;BME280;39552;45.776;15.892;2023-02-14T05:45:46;102393.88;;;0.96;100.00
53651;BME280;39552;45.776;15.892;2023-02-14T05:48:14;102397.75;;;1.17;100.00
53651;BME280;39552;45.776;15.892;2023-02-14T05:50:40;102390.22;;;0.88;100.00
53651;BME280;39552;45.776;15.892;2023-02-14T05:53:08;102385.88;;;0.93;100.00
53651;BME280;39552;45.776;15.892;2023-02-14T05:55:35;102371.59;;;0.90;100.00
53651;BME280;39552;45.776;15.892;2023-02-14T05:58:02;102393.25;;;1.13;100.00
53651;BME280;39552;45.776;15.892;2023-02-14T06:00:29;102384.22;;;1.03;100.00
53651;BME280;39552;45.776;15.892;2023-02-14T06:02:56;102398.53;;;1.10;100.00
53651;BME280;39552;45.776;15.892;2023-02-14T06:05:23;102401.78;;;0.90;100.00
53651;BME280;39552;45.776;15.892;2023-02-14T06:07:50;102390.16;;;0.84;100.00
53651;BME280;39552;45.776;15.892;2023-02-14T06:10:19;102390.53;;;1.10;100.00
53651;BME280;39552;45.776;15.892;2023-02-14T06:12:47;102410.00;;;1.03;100.00
53651;BME280;39552;45.776;15.892;2023-02-14T06:15:15;102407.31;;;1.04;100.00
53651;BME280;39552;45.776;15.892;2023-02-14T06:17:42;102404.53;;;0.96;100.00
53651;BME280;39552;45.776;15.892;2023-02-14T06:20:09;102393.19;;;1.10;100.00
53651;BME280;39552;45.776;15.892;2023-02-14T06:22:36;102385.19;;;1.10;100.00
53651;BME280;39552;45.776;15.892;2023-02-14T06:25:04;102403.06;;;1.17;100.00
53651;BME280;39552;45.776;15.892;2023-02-14T06:27:33;102387.06;;;1.15;100.00
53651;BME280;39552;45.776;15.892;2023-02-14T06:29:59;102407.50;;;1.15;100.00
53651;BME280;39552;45.776;15.892;2023-02-14T06:32:26;102401.19;;;1.10;100.00
53651;BME280;39552;45.776;15.892;2023-02-14T06:34:53;102385.16;;;1.07;100.00
53651;BME280;39552;45.776;15.892;2023-02-14T06:37:20;102409.47;;;1.30;100.00
53651;BME280;39552;45.776;15.892;2023-02-14T06:39:46;102402.22;;;1.20;100.00
53651;BME280;39552;45.776;15.892;2023-02-14T06:42:13;102397.13;;;1.38;100.00
53651;BME280;39552;45.776;15.892;2023-02-14T06:44:41;102405.28;;;1.49;100.00
53651;BME280;39552;45.776;15.892;2023-02-14T06:47:08;102391.53;;;1.20;100.00
53651;BME280;39552;45.776;15.892;2023-02-14T06:49:35;102379.25;;;1.31;100.00
53651;BME280;39552;45.776;15.892;2023-02-14T06:52:03;102384.75;;;1.42;100.00
53651;BME280;39552;45.776;15.892;2023-02-14T06:54:30;102393.75;;;1.54;100.00
53651;BME280;39552;45.776;15.892;2023-02-14T06:56:57;102382.03;;;1.38;100.00
53651;BME280;39552;45.776;15.892;2023-02-14T06:59:24;102395.72;;;1.66;100.00
53651;BME280;39552;45.776;15.892;2023-02-14T07:01:52;102383.28;;;1.68;100.00
53651;BME280;39552;45.776;15.892;2023-02-14T07:04:18;102400.44;;;1.92;100.00
53651;BME280;39552;45.776;15.892;2023-02-14T07:06:45;102395.81;;;1.77;100.00
53651;BME280;39552;45.776;15.892;2023-02-14T07:09:12;102387.91;;;1.85;100.00
53651;BME280;39552;45.776;15.892;2023-02-14T07:11:39;102367.44;;;1.84;100.00
53651;BME280;39552;45.776;15.892;2023-02-14T07:14:05;102373.84;;;2.01;100.00
53651;BME280;39552;45.776;15.892;2023-02-14T07:16:32;102381.72;;;1.89;100.00
53651;BME280;39552;45.776;15.892;2023-02-14T07:19:00;102381.84;;;2.01;100.00
53651;BME280;39552;45.776;15.892;2023-02-14T07:21:27;102374.88;;;2.20;100.00
53651;BME280;39552;45.776;15.892;2023-02-14T07:23:54;102368.50;;;2.03;100.00
53651;BME280;39552;45.776;15.892;2023-02-14T07:26:20;102403.50;;;2.33;100.00
53651;BME280;39552;45.776;15.892;2023-02-14T07:28:47;102399.13;;;2.40;100.00
53651;BME280;39552;45.776;15.892;2023-02-14T07:31:16;102380.44;;;2.42;100.00
53651;BME280;39552;45.776;15.892;2023-02-14T07:33:43;102373.22;;;2.31;100.00
53651;BME280;39552;45.776;15.892;2023-02-14T07:36:11;102369.91;;;2.66;100.00
53651;BME280;39552;45.776;15.892;2023-02-14T07:38:38;102370.81;;;2.64;100.00
53651;BME280;39552;45.776;15.892;2023-02-14T07:41:04;102371.72;;;2.67;100.00
53651;BME280;39552;45.776;15.892;2023-02-14T07:43:31;102373.53;;;2.71;100.00
53651;BME280;39552;45.776;15.892;2023-02-14T07:45:58;102370.03;;;2.79;100.00
53651;BME280;39552;45.776;15.892;2023-02-14T07:48:25;102370.22;;;3.09;100.00
53651;BME280;39552;45.776;15.892;2023-02-14T07:50:56;102361.31;;;3.13;100.00
53651;BME280;39552;45.776;15.892;2023-02-14T07:53:24;102366.72;;;3.29;100.00
53651;BME280;39552;45.776;15.892;2023-02-14T07:55:51;102374.75;;;3.33;100.00
53651;BME280;39552;45.776;15.892;2023-02-14T07:58:18;102364.88;;;3.19;100.00
53651;BME280;39552;45.776;15.892;2023-02-14T08:00:45;102363.16;;;3.28;100.00
53651;BME280;39552;45.776;15.892;2023-02-14T08:03:12;102364.91;;;3.26;100.00
53651;BME280;39552;45.776;15.892;2023-02-14T08:05:39;102368.53;;;3.38;100.00
53651;BME280;39552;45.776;15.892;2023-02-14T08:08:05;102371.28;;;3.56;100.00
53651;BME280;39552;45.776;15.892;2023-02-14T08:10:33;102352.59;;;3.64;100.00
53651;BME280;39552;45.776;15.892;2023-02-14T08:13:00;102348.09;;;3.53;100.00
53651;BME280;39552;45.776;15.892;2023-02-14T08:15:28;102365.09;;;3.68;100.00
53651;BME280;39552;45.776;15.892;2023-02-14T08:17:55;102354.38;;;3.72;100.00
53651;BME280;39552;45.776;15.892;2023-02-14T08:20:22;102366.03;;;3.90;100.00
53651;BME280;39552;45.776;15.892;2023-02-14T08:22:49;102347.31;;;4.04;100.00
53651;BME280;39552;45.776;15.892;2023-02-14T08:25:16;102342.81;;;3.92;100.00
53651;BME280;39552;45.776;15.892;2023-02-14T08:27:44;102364.22;;;3.92;100.00
53651;BME280;39552;45.776;15.892;2023-02-14T08:30:11;102361.56;;;3.86;100.00
53651;BME280;39552;45.776;15.892;2023-02-14T08:32:38;102360.72;;;4.04;100.00
53651;BME280;39552;45.776;15.892;2023-02-14T08:35:06;102350.88;;;3.98;100.00
53651;BME280;39552;45.776;15.892;2023-02-14T08:37:33;102365.13;;;4.02;100.00
53651;BME280;39552;45.776;15.892;2023-02-14T08:40:19;102364.28;;;4.13;100.00
53651;BME280;39552;45.776;15.892;2023-02-14T08:43:13;102347.31;;;4.14;100.00
53651;BME280;39552;45.776;15.892;2023-02-14T08:45:41;102358.91;;;4.17;100.00
53651;BME280;39552;45.776;15.892;2023-02-14T08:48:10;102331.25;;;4.04;100.00
53651;BME280;39552;45.776;15.892;2023-02-14T08:50:39;102356.25;;;4.29;100.00
53651;BME280;39552;45.776;15.892;2023-02-14T08:53:07;102347.31;;;4.28;100.00
53651;BME280;39552;45.776;15.892;2023-02-14T08:55:34;102350.88;;;4.57;100.00
53651;BME280;39552;45.776;15.892;2023-02-14T08:58:02;102357.16;;;4.62;100.00
53651;BME280;39552;45.776;15.892;2023-02-14T09:00:30;102353.56;;;4.50;100.00
53651;BME280;39552;45.776;15.892;2023-02-14T09:02:58;102346.41;;;4.56;100.00
53651;BME280;39552;45.776;15.892;2023-02-14T09:05:25;102356.25;;;4.64;100.00
53651;BME280;39552;45.776;15.892;2023-02-14T09:07:52;102358.91;;;4.67;100.00
53651;BME280;39552;45.776;15.892;2023-02-14T09:10:19;102362.44;;;4.96;100.00
53651;BME280;39552;45.776;15.892;2023-02-14T09:12:46;102349.91;;;4.88;100.00
53651;BME280;39552;45.776;15.892;2023-02-14T09:15:13;102342.78;;;4.84;100.00
53651;BME280;39552;45.776;15.892;2023-02-14T09:17:41;102342.78;;;4.87;100.00
53651;BME280;39552;45.776;15.892;2023-02-14T09:20:09;102353.44;;;5.15;100.00
53651;BME280;39552;45.776;15.892;2023-02-14T09:22:37;102355.22;;;5.16;100.00
53651;BME280;39552;45.776;15.892;2023-02-14T09:25:04;102347.19;;;5.18;100.00
53651;BME280;39552;45.776;15.892;2023-02-14T09:27:31;102333.72;;;5.25;100.00
53651;BME280;39552;45.776;15.892;2023-02-14T09:29:58;102358.75;;;5.29;100.00
53651;BME280;39552;45.776;15.892;2023-02-14T09:32:24;102354.19;;;5.51;100.00
53651;BME280;39552;45.776;15.892;2023-02-14T09:34:52;102357.78;;;5.47;100.00
53651;BME280;39552;45.776;15.892;2023-02-14T09:37:19;102362.13;;;5.69;100.00
53651;BME280;39552;45.776;15.892;2023-02-14T09:39:46;102365.75;;;5.65;100.00
53651;BME280;39552;45.776;15.892;2023-02-14T09:42:35;102360.31;;;5.78;100.00
53651;BME280;39552;45.776;15.892;2023-02-14T09:45:09;102354.88;;;5.87;100.00
53651;BME280;39552;45.776;15.892;2023-02-14T09:47:42;102340.59;;;5.82;100.00
53651;BME280;39552;45.776;15.892;2023-02-14T09:50:18;102357.41;;;6.15;100.00
53651;BME280;39552;45.776;15.892;2023-02-14T09:52:48;102346.66;;;6.16;100.00
53651;BME280;39552;45.776;15.892;2023-02-14T09:55:17;102354.56;;;6.33;100.00
53651;BME280;39552;45.776;15.892;2023-02-14T09:57:54;102350.03;;;6.40;100.00
53651;BME280;39552;45.776;15.892;2023-02-14T10:00:33;102351.81;;;6.41;100.00
53651;BME280;39552;45.776;15.892;2023-02-14T10:03:11;102356.19;;;6.56;100.00
53651;BME280;39552;45.776;15.892;2023-02-14T10:05:51;102338.28;;;6.50;100.00
53651;BME280;39552;45.776;15.892;2023-02-14T10:08:31;102359.59;;;6.73;100.00
53651;BME280;39552;45.776;15.892;2023-02-14T10:11:04;102336.34;;;6.66;100.00
53651;BME280;39552;45.776;15.892;2023-02-14T10:13:37;102338.97;;;6.72;100.00
53651;BME280;39552;45.776;15.892;2023-02-14T10:16:10;102321.09;;;6.68;100.00
53651;BME280;39552;45.776;15.892;2023-02-14T10:18:42;102341.56;;;6.83;100.00
53651;BME280;39552;45.776;15.892;2023-02-14T10:21:15;102305.59;;;6.92;100.00
53651;BME280;39552;45.776;15.892;2023-02-14T10:23:49;102321.59;;;7.04;100.00
53651;BME280;39552;45.776;15.892;2023-02-14T10:26:22;102314.47;;;7.00;100.00
53651;BME280;39552;45.776;15.892;2023-02-14T10:28:50;102325.06;;;7.12;100.00
53651;BME280;39552;45.776;15.892;2023-02-14T10:31:20;102322.34;;;7.17;100.00
53651;BME280;39552;45.776;15.892;2023-02-14T10:33:53;102317.78;;;7.22;100.00
53651;BME280;39552;45.776;15.892;2023-02-14T10:36:46;102320.38;;;7.29;100.00
53651;BME280;39552;45.776;15.892;2023-02-14T10:39:33;102294.59;;;7.10;100.00
53651;BME280;39552;45.776;15.892;2023-02-14T10:42:10;102298.03;;;7.23;100.00
53651;BME280;39552;45.776;15.892;2023-02-14T10:44:46;102298.63;;;7.45;100.00
53651;BME280;39552;45.776;15.892;2023-02-14T10:47:25;102291.50;;;7.42;100.00
53651;BME280;39552;45.776;15.892;2023-02-14T10:50:01;102299.47;;;7.52;100.00
53651;BME280;39552;45.776;15.892;2023-02-14T10:52:37;102292.38;;;7.43;100.00
53651;BME280;39552;45.776;15.892;2023-02-14T10:55:11;102285.16;;;7.45;100.00
53651;BME280;39552;45.776;15.892;2023-02-14T10:57:57;102277.59;;;7.72;100.00
53651;BME280;39552;45.776;15.892;2023-02-14T11:00:26;102292.81;;;7.74;100.00
53651;BME280;39552;45.776;15.892;2023-02-14T11:02:56;102277.69;;;7.65;100.00
53651;BME280;39552;45.776;15.892;2023-02-14T11:05:25;102282.03;;;7.76;100.00
53651;BME280;39552;45.776;15.892;2023-02-14T11:07:55;102280.91;;;7.89;100.00
53651;BME280;39552;45.776;15.892;2023-02-14T11:10:25;102270.16;;;7.87;100.00
53651;BME280;39552;45.776;15.892;2023-02-14T11:12:52;102266.59;;;7.87;100.00
53651;BME280;39552;45.776;15.892;2023-02-14T11:15:23;102260.28;;;7.88;100.00
53651;BME280;39552;45.776;15.892;2023-02-14T11:18:08;102269.78;;;8.11;100.00
53651;BME280;39552;45.776;15.892;2023-02-14T11:20:38;102259.81;;;8.16;100.00
53651;BME280;39552;45.776;15.892;2023-02-14T11:23:19;102253.56;;;8.14;100.00
53651;BME280;39552;45.776;15.892;2023-02-14T11:25:49;102235.44;;;8.22;100.00
53651;BME280;39552;45.776;15.892;2023-02-14T11:28:17;102248.75;;;8.33;100.00
53651;BME280;39552;45.776;15.892;2023-02-14T11:30:46;102234.63;;;8.17;100.00
53651;BME280;39552;45.776;15.892;2023-02-14T11:33:25;102231.03;;;8.18;100.00
53651;BME280;39552;45.776;15.892;2023-02-14T11:35:55;102238.88;;;8.30;100.00
53651;BME280;39552;45.776;15.892;2023-02-14T11:38:26;102233.31;;;8.41;100.00
53651;BME280;39552;45.776;15.892;2023-02-14T11:40:54;102224.41;;;8.34;100.00
53651;BME280;39552;45.776;15.892;2023-02-14T11:43:29;102237.63;;;8.51;100.00
53651;BME280;39552;45.776;15.892;2023-02-14T11:46:07;102233.03;;;8.58;100.00
53651;BME280;39552;45.776;15.892;2023-02-14T11:48:43;102216.03;;;8.53;100.00
53651;BME280;39552;45.776;15.892;2023-02-14T11:51:26;102226.78;;;8.56;100.00
53651;BME280;39552;45.776;15.892;2023-02-14T11:53:56;102214.06;;;8.61;100.00
53651;BME280;39552;45.776;15.892;2023-02-14T11:56:23;102219.28;;;8.70;100.00
53651;BME280;39552;45.776;15.892;2023-02-14T11:58:55;102221.13;;;8.66;100.00
53651;BME280;39552;45.776;15.892;2023-02-14T12:01:24;102209.72;;;8.54;100.00
53651;BME280;39552;45.776;15.892;2023-02-14T12:03:53;102209.31;;;8.74;100.00
53651;BME280;39552;45.776;15.892;2023-02-14T12:06:23;102206.59;;;8.74;100.00
53651;BME280;39552;45.776;15.892;2023-02-14T12:08:50;102206.28;;;8.89;100.00
53651;BME280;39552;45.776;15.892;2023-02-14T12:11:20;102190.28;;;8.80;100.00
53651;BME280;39552;45.776;15.892;2023-02-14T12:13:51;102202.34;;;8.63;100.00
53651;BME280;39552;45.776;15.892;2023-02-14T12:16:21;102189.84;;;8.58;100.00
53651;BME280;39552;45.776;15.892;2023-02-14T12:18:52;102194.09;;;8.70;100.00
53651;BME280;39552;45.776;15.892;2023-02-14T12:21:41;102177.00;;;8.69;100.00
53651;BME280;39552;45.776;15.892;2023-02-14T12:24:18;102179.91;;;9.02;100.00
53651;BME280;39552;45.776;15.892;2023-02-14T12:26:55;102172.06;;;8.91;100.00
53651;BME280;39552;45.776;15.892;2023-02-14T12:29:28;102173.41;;;9.11;100.00
53651;BME280;39552;45.776;15.892;2023-02-14T12:32:01;102186.00;;;9.12;100.00
53651;BME280;39552;45.776;15.892;2023-02-14T12:34:28;102169.19;;;8.99;100.00
53651;BME280;39552;45.776;15.892;2023-02-14T12:37:12;102170.84;;;9.06;100.00
53651;BME280;39552;45.776;15.892;2023-02-14T12:39:51;102147.63;;;8.96;100.00
53651;BME280;39552;45.776;15.892;2023-02-14T12:42:36;102168.00;;;9.12;100.00
53651;BME280;39552;45.776;15.892;2023-02-14T12:45:16;102139.19;;;9.11;100.00
53651;BME280;39552;45.776;15.892;2023-02-14T12:47:51;102167.00;;;9.16;100.00
53651;BME280;39552;45.776;15.892;2023-02-14T12:50:28;102153.50;;;9.16;100.00
53651;BME280;39552;45.776;15.892;2023-02-14T12:53:27;102142.53;;;9.22;100.00
53651;BME280;39552;45.776;15.892;2023-02-14T12:56:05;102147.75;;;9.30;100.00
53651;BME280;39552;45.776;15.892;2023-02-14T12:58:48;102137.91;;;9.29;100.00
53651;BME280;39552;45.776;15.892;2023-02-14T13:01:28;102133.22;;;9.36;100.00